Time;durP1;ratioP1;P1;durP2;ratioP2;P2;SDS_P1;SDS_P2;PMS_P1;PMS_P2;Temp;Humidity;BMP_temperature;BMP_pressure;BME280_temperature;BME280_humidity;BME280_pressure;Samples;Min_cycle;Max_cycle;Signal;HPM_P1;HPM_P2
2022/03/12 00:00:07;;;;;;;31.33;20.38;;;10.50;99.90;;;;;;5044618;28;20026;-69
2022/03/12 00:02:34;;;;;;;34.00;20.40;;;10.50;99.90;;;;;;5044002;28;20021;-69
2022/03/12 00:05:06;;;;;;;33.30;20.02;;;10.50;99.90;;;;;;5047433;28;20470;-69
2022/03/12 00:07:32;;;;;;;30.15;20.92;;;10.50;99.90;;;;;;5043305;28;20045;-69
2022/03/12 00:09:57;;;;;;;29.73;19.70;;;10.40;99.90;;;;;;5038777;28;20398;-70
2022/03/12 00:12:24;;;;;;;26.73;19.42;;;10.40;99.90;;;;;;5041362;28;20029;-70
2022/03/12 00:14:50;;;;;;;31.77;19.85;;;10.40;99.90;;;;;;5039102;28;20052;-69
2022/03/12 00:17:19;;;;;;;27.20;19.15;;;10.40;99.90;;;;;;5039896;28;20039;-69
2022/03/12 00:19:45;;;;;;;30.65;20.23;;;10.40;99.90;;;;;;5041753;28;20029;-70
2022/03/12 00:22:12;;;;;;;31.35;21.00;;;10.40;99.90;;;;;;5043948;28;20036;-69
2022/03/12 00:24:40;;;;;;;31.05;20.48;;;10.50;99.90;;;;;;5041307;28;20174;-70
2022/03/12 00:27:08;;;;;;;32.58;20.38;;;10.50;99.90;;;;;;5040849;28;20122;-69
2022/03/12 00:29:35;;;;;;;32.72;20.13;;;10.40;99.90;;;;;;5041582;28;20072;-67
2022/03/12 00:32:03;;;;;;;30.10;19.83;;;10.40;99.90;;;;;;5040573;28;20079;-67
2022/03/12 00:34:29;;;;;;;31.08;19.38;;;10.40;99.90;;;;;;5042842;28;20412;-67
2022/03/12 00:36:55;;;;;;;28.67;19.80;;;10.40;99.90;;;;;;5042541;28;20029;-67
2022/03/12 00:39:21;;;;;;;31.88;20.20;;;10.40;99.90;;;;;;5040235;28;20415;-67
2022/03/12 00:41:47;;;;;;;28.63;19.73;;;10.40;99.90;;;;;;5037828;28;20048;-67
2022/03/12 00:44:17;;;;;;;34.47;20.30;;;10.30;99.90;;;;;;5037221;28;20489;-67
2022/03/12 00:46:44;;;;;;;31.63;20.90;;;10.40;99.90;;;;;;5038885;28;20017;-67
2022/03/12 00:49:10;;;;;;;30.70;19.90;;;10.40;99.90;;;;;;5041592;28;20456;-67
2022/03/12 00:51:38;;;;;;;27.80;20.58;;;10.40;99.90;;;;;;5041979;28;20053;-66
2022/03/12 00:54:04;;;;;;;31.90;20.35;;;10.40;99.90;;;;;;5040774;28;20033;-67
2022/03/12 00:56:30;;;;;;;31.80;19.35;;;10.40;99.90;;;;;;5041768;28;20074;-67
2022/03/12 00:58:57;;;;;;;31.63;20.98;;;10.30;99.90;;;;;;5040509;28;20426;-67
2022/03/12 01:01:25;;;;;;;33.67;20.15;;;10.30;99.90;;;;;;5043868;28;20443;-67
2022/03/12 01:03:50;;;;;;;32.92;20.30;;;10.40;99.90;;;;;;5041373;28;20086;-67
2022/03/12 01:06:18;;;;;;;30.90;20.85;;;10.40;99.90;;;;;;5044329;28;20033;-67
2022/03/12 01:08:45;;;;;;;31.23;20.80;;;10.40;99.90;;;;;;5041879;28;20864;-67
2022/03/12 01:11:11;;;;;;;28.48;19.67;;;10.40;99.90;;;;;;5042206;28;20072;-67
2022/03/12 01:13:38;;;;;;;31.85;20.88;;;10.30;99.90;;;;;;5050091;28;20051;-67
2022/03/12 01:16:05;;;;;;;33.65;20.10;;;10.40;99.90;;;;;;5049788;28;20055;-67
2022/03/12 01:18:31;;;;;;;32.05;20.35;;;10.40;99.90;;;;;;5048367;28;20025;-67
2022/03/12 01:21:08;;;;;;;29.95;20.38;;;10.40;99.90;;;;;;5048236;28;20028;-67
2022/03/12 01:23:34;;;;;;;28.67;19.80;;;10.40;99.90;;;;;;5041110;28;20111;-67
2022/03/12 01:26:00;;;;;;;32.22;21.20;;;10.40;99.90;;;;;;5046740;28;20394;-67
2022/03/12 01:28:26;;;;;;;28.08;19.90;;;10.30;99.90;;;;;;5045909;28;20029;-67
2022/03/12 01:30:54;;;;;;;29.17;19.95;;;10.30;99.90;;;;;;5045635;28;20103;-67
2022/03/12 01:33:20;;;;;;;31.92;20.83;;;10.30;99.90;;;;;;5042768;28;20084;-66
2022/03/12 01:35:46;;;;;;;28.88;20.85;;;10.30;99.90;;;;;;5046100;28;20501;-67
2022/03/12 01:38:13;;;;;;;27.92;18.77;;;10.30;99.90;;;;;;5046037;28;20037;-67
2022/03/12 01:40:39;;;;;;;33.70;21.08;;;10.30;99.90;;;;;;5042608;28;20033;-67
2022/03/12 01:43:06;;;;;;;32.28;20.27;;;10.40;99.90;;;;;;5045705;28;20037;-69
2022/03/12 01:45:34;;;;;;;28.70;19.92;;;10.40;99.90;;;;;;5042540;28;20040;-69
2022/03/12 01:48:02;;;;;;;28.10;20.02;;;10.30;99.90;;;;;;5046738;28;20094;-68
2022/03/12 01:50:36;;;;;;;30.63;19.48;;;10.30;99.90;;;;;;5050317;28;20040;-69
2022/03/12 01:53:05;;;;;;;28.63;19.67;;;10.30;99.90;;;;;;5050843;28;20032;-69
2022/03/12 01:55:31;;;;;;;29.58;19.45;;;10.30;99.90;;;;;;5047240;28;20094;-69
2022/03/12 01:58:02;;;;;;;25.85;18.17;;;10.30;99.90;;;;;;5049675;28;20052;-69
2022/03/12 02:00:41;;;;;;;28.25;19.27;;;10.30;99.90;;;;;;5047907;28;20026;-69
2022/03/12 02:03:07;;;;;;;25.13;17.88;;;10.20;99.90;;;;;;5047513;28;20042;-69
2022/03/12 02:05:34;;;;;;;27.42;18.58;;;10.30;99.90;;;;;;5051898;28;20401;-69
2022/03/12 02:08:02;;;;;;;28.92;19.38;;;10.20;99.90;;;;;;5046262;28;20029;-69
2022/03/12 02:10:28;;;;;;;30.10;18.42;;;10.20;99.90;;;;;;5041916;28;20056;-69
2022/03/12 02:12:53;;;;;;;27.45;18.38;;;10.20;99.90;;;;;;5049049;28;20029;-69
2022/03/12 02:15:22;;;;;;;28.80;18.98;;;10.20;99.90;;;;;;5048883;28;20036;-69
2022/03/12 02:17:51;;;;;;;27.48;19.55;;;10.20;99.90;;;;;;5052023;28;20055;-69
2022/03/12 02:20:20;;;;;;;26.90;18.10;;;10.20;99.90;;;;;;5052701;28;20456;-69
2022/03/12 02:22:53;;;;;;;24.60;18.08;;;10.20;99.90;;;;;;5048711;28;20078;-69
2022/03/12 02:25:28;;;;;;;24.50;16.85;;;10.20;99.90;;;;;;5043485;28;20088;-69
2022/03/12 02:27:58;;;;;;;25.70;17.10;;;10.30;99.90;;;;;;5049527;28;20029;-69
2022/03/12 02:30:47;;;;;;;23.02;16.63;;;10.20;99.90;;;;;;5048922;28;20037;-69
2022/03/12 02:33:14;;;;;;;25.13;16.52;;;10.20;99.90;;;;;;5049875;28;20445;-69
2022/03/12 02:35:42;;;;;;;25.10;16.65;;;10.20;99.90;;;;;;5044493;28;20075;-69
2022/03/12 02:38:08;;;;;;;22.52;16.77;;;10.10;99.90;;;;;;5049497;28;20039;-69
2022/03/12 02:40:35;;;;;;;24.10;16.58;;;10.10;99.90;;;;;;5047085;28;20400;-69
2022/03/12 02:43:01;;;;;;;22.63;16.63;;;10.20;99.90;;;;;;5047560;28;20528;-69
2022/03/12 02:45:29;;;;;;;22.00;15.52;;;10.20;99.90;;;;;;5047756;28;20033;-69
2022/03/12 02:47:55;;;;;;;23.35;16.98;;;10.10;99.90;;;;;;5050056;28;20140;-69
2022/03/12 02:50:23;;;;;;;24.83;16.33;;;10.10;99.90;;;;;;5051142;28;20179;-69
2022/03/12 02:52:50;;;;;;;24.15;17.33;;;10.10;99.90;;;;;;5046996;28;20024;-69
2022/03/12 02:55:22;;;;;;;26.05;16.65;;;10.00;99.90;;;;;;5046761;28;20040;-69
2022/03/12 02:57:49;;;;;;;24.52;17.33;;;10.00;99.90;;;;;;5047850;28;20386;-69
2022/03/12 03:00:16;;;;;;;21.65;15.35;;;10.00;99.90;;;;;;5047158;28;20036;-69
2022/03/12 03:02:47;;;;;;;24.70;15.48;;;10.00;99.90;;;;;;5051037;28;20127;-69
2022/03/12 03:05:41;;;;;;;24.27;16.80;;;10.10;99.90;;;;;;5049744;28;20033;-69
2022/03/12 03:08:09;;;;;;;25.03;15.83;;;10.10;99.90;;;;;;5048963;28;20125;-69
2022/03/12 03:10:40;;;;;;;23.27;16.17;;;10.20;99.90;;;;;;5039156;28;20304;-69
2022/03/12 03:13:20;;;;;;;24.50;15.60;;;10.20;99.90;;;;;;5044260;28;20056;-69
2022/03/12 03:15:51;;;;;;;25.33;15.63;;;10.20;99.90;;;;;;5046905;28;20127;-69
2022/03/12 03:18:22;;;;;;;22.20;15.30;;;10.10;99.90;;;;;;5047089;28;20026;-69
2022/03/12 03:20:49;;;;;;;21.48;16.40;;;10.10;99.90;;;;;;5045928;28;20037;-69
2022/03/12 03:23:15;;;;;;;23.30;15.40;;;10.10;99.90;;;;;;5046063;28;20389;-68
2022/03/12 03:25:41;;;;;;;27.88;16.02;;;10.10;99.90;;;;;;5046047;28;20037;-68
2022/03/12 03:28:08;;;;;;;22.02;15.25;;;10.10;99.90;;;;;;5047551;28;20059;-69
2022/03/12 03:30:37;;;;;;;24.67;16.15;;;10.10;99.90;;;;;;5050463;28;20072;-69
2022/03/12 03:33:07;;;;;;;20.52;14.73;;;10.10;99.90;;;;;;5049535;28;20033;-69
2022/03/12 03:35:33;;;;;;;22.52;15.48;;;10.20;99.90;;;;;;5047009;28;20389;-69
2022/03/12 03:37:58;;;;;;;25.02;15.52;;;10.20;99.90;;;;;;5047420;28;20039;-69
2022/03/12 03:40:25;;;;;;;23.02;15.60;;;10.10;99.90;;;;;;5044734;28;20037;-69
2022/03/12 03:42:52;;;;;;;21.60;15.73;;;10.10;99.90;;;;;;5050180;28;20509;-69
2022/03/12 03:45:22;;;;;;;20.73;15.05;;;10.20;99.90;;;;;;5051120;28;20033;-69
2022/03/12 03:47:49;;;;;;;21.05;15.02;;;10.20;99.90;;;;;;5047254;28;20063;-69
2022/03/12 03:50:16;;;;;;;24.48;15.55;;;10.20;99.90;;;;;;5047369;28;20043;-69
2022/03/12 03:52:41;;;;;;;24.15;15.75;;;10.20;99.90;;;;;;5045867;28;20069;-69
2022/03/12 03:55:07;;;;;;;23.35;15.75;;;10.20;99.90;;;;;;5047051;28;20071;-69
2022/03/12 03:57:33;;;;;;;24.90;15.57;;;10.20;99.90;;;;;;5050546;28;20452;-69
2022/03/12 03:59:59;;;;;;;21.35;14.65;;;10.20;99.90;;;;;;5042505;28;20025;-68
2022/03/12 04:02:24;;;;;;;23.55;15.18;;;10.10;99.90;;;;;;5050175;28;20527;-69
2022/03/12 04:04:51;;;;;;;21.42;13.82;;;10.20;99.90;;;;;;5045131;28;20085;-69
2022/03/12 04:07:17;;;;;;;22.13;13.60;;;10.20;99.90;;;;;;5044393;28;20040;-68
2022/03/12 04:09:42;;;;;;;22.75;15.07;;;10.20;99.90;;;;;;5044944;28;20041;-69
2022/03/12 04:12:09;;;;;;;22.35;14.82;;;10.20;99.90;;;;;;5047490;28;20379;-69
2022/03/12 04:14:34;;;;;;;18.95;13.35;;;10.20;99.90;;;;;;5048991;28;20102;-69
2022/03/12 04:17:00;;;;;;;22.95;13.82;;;10.10;99.90;;;;;;5045949;28;20060;-69
2022/03/12 04:19:28;;;;;;;21.70;14.23;;;10.10;99.90;;;;;;5044260;28;20063;-69
2022/03/12 04:21:57;;;;;;;20.80;13.63;;;10.20;99.90;;;;;;5046137;28;20031;-69
2022/03/12 04:24:24;;;;;;;24.85;13.75;;;10.10;99.90;;;;;;5047184;28;20030;-69
2022/03/12 04:26:50;;;;;;;20.92;13.82;;;10.10;99.90;;;;;;5050621;28;20056;-69
2022/03/12 04:29:18;;;;;;;20.67;14.30;;;10.10;99.90;;;;;;5048060;28;20036;-69
2022/03/12 04:31:47;;;;;;;21.45;14.18;;;10.10;99.90;;;;;;5044703;28;20056;-69
2022/03/12 04:34:13;;;;;;;19.90;14.15;;;10.20;99.90;;;;;;5044600;28;20025;-69
2022/03/12 04:36:42;;;;;;;21.20;14.50;;;10.20;99.90;;;;;;5045812;28;20497;-69
2022/03/12 04:39:10;;;;;;;21.83;13.65;;;10.20;99.90;;;;;;5048064;28;20079;-69
2022/03/12 04:41:39;;;;;;;19.70;13.85;;;10.10;99.90;;;;;;5050680;28;20041;-69
2022/03/12 04:44:06;;;;;;;22.50;15.20;;;10.10;99.90;;;;;;5047517;28;20565;-69
2022/03/12 04:46:32;;;;;;;23.17;15.35;;;10.10;99.90;;;;;;5044035;28;20035;-69
2022/03/12 04:48:58;;;;;;;28.70;16.27;;;10.10;99.90;;;;;;5045236;28;20029;-69
2022/03/12 04:51:24;;;;;;;26.67;17.13;;;10.10;99.90;;;;;;5047278;28;20041;-69
2022/03/12 04:53:54;;;;;;;24.65;17.05;;;10.00;99.90;;;;;;5050733;28;20033;-68
2022/03/12 04:56:23;;;;;;;26.52;17.90;;;9.90;99.90;;;;;;5049326;28;20025;-69
2022/03/12 04:58:49;;;;;;;23.88;17.75;;;9.80;99.90;;;;;;5045916;28;20473;-69
2022/03/12 05:01:16;;;;;;;28.35;19.80;;;9.80;99.90;;;;;;5043943;28;20411;-69
2022/03/12 05:03:43;;;;;;;24.83;16.73;;;9.80;99.90;;;;;;5045890;28;20033;-69
2022/03/12 05:06:13;;;;;;;26.83;18.15;;;9.70;99.90;;;;;;5049697;28;20033;-69
2022/03/12 05:08:39;;;;;;;26.20;18.45;;;9.80;99.90;;;;;;5050075;28;20029;-69
2022/03/12 05:11:06;;;;;;;25.70;17.40;;;9.70;99.90;;;;;;5048321;28;20112;-69
2022/03/12 05:13:32;;;;;;;24.30;18.48;;;9.80;99.90;;;;;;5043296;28;20053;-69
2022/03/12 05:16:04;;;;;;;26.40;18.45;;;9.80;99.90;;;;;;5054225;28;20040;-69
2022/03/12 05:18:31;;;;;;;27.75;18.17;;;9.80;99.90;;;;;;5052342;28;20405;-69
2022/03/12 05:20:58;;;;;;;30.48;21.90;;;9.70;99.90;;;;;;5052279;28;20104;-69
2022/03/12 05:23:24;;;;;;;39.38;28.05;;;9.70;99.90;;;;;;5052440;28;20017;-69
2022/03/12 05:25:51;;;;;;;37.05;25.02;;;9.70;99.90;;;;;;5056246;28;20475;-69
2022/03/12 05:28:19;;;;;;;34.20;23.42;;;9.70;99.90;;;;;;5055945;28;20036;-67
2022/03/12 05:30:46;;;;;;;30.45;21.63;;;9.70;99.90;;;;;;5055664;28;20505;-67
2022/03/12 05:33:13;;;;;;;34.08;21.85;;;9.70;99.90;;;;;;5056158;28;20033;-67
2022/03/12 05:35:40;;;;;;;27.45;19.00;;;9.60;99.90;;;;;;5055630;28;20013;-67
2022/03/12 05:38:06;;;;;;;27.70;19.20;;;9.60;99.90;;;;;;5056167;28;20451;-67
2022/03/12 05:40:38;;;;;;;25.65;18.90;;;9.60;99.90;;;;;;5055500;28;20055;-67
2022/03/12 05:43:09;;;;;;;26.90;18.67;;;9.60;99.90;;;;;;5046221;28;20041;-67
2022/03/12 05:45:36;;;;;;;23.90;16.75;;;9.60;99.90;;;;;;5054421;28;20064;-67
2022/03/12 05:48:01;;;;;;;27.98;17.65;;;9.70;99.90;;;;;;5055723;28;20496;-67
2022/03/12 05:50:28;;;;;;;25.55;16.92;;;9.80;99.90;;;;;;5056069;28;20099;-67
2022/03/12 05:52:54;;;;;;;26.65;15.63;;;9.80;99.90;;;;;;5055750;28;20028;-67
2022/03/12 05:55:23;;;;;;;23.02;14.55;;;9.80;99.90;;;;;;5055393;28;20032;-67
2022/03/12 05:57:49;;;;;;;24.35;15.93;;;9.80;99.90;;;;;;5056033;28;20098;-67
2022/03/12 06:00:17;;;;;;;20.02;14.73;;;9.90;99.90;;;;;;5055585;28;20160;-67
2022/03/12 06:02:50;;;;;;;22.42;14.93;;;9.80;99.90;;;;;;5054472;28;20032;-67
2022/03/12 06:05:21;;;;;;;21.77;14.30;;;9.80;99.90;;;;;;5048197;28;20029;-67
2022/03/12 06:07:47;;;;;;;24.15;15.60;;;9.80;99.90;;;;;;5055680;28;20028;-67
2022/03/12 06:10:25;;;;;;;19.95;14.32;;;9.90;99.90;;;;;;5052222;28;20048;-67
2022/03/12 06:12:53;;;;;;;22.30;15.07;;;9.90;99.90;;;;;;5055193;28;20127;-67
2022/03/12 06:15:21;;;;;;;22.55;14.57;;;9.80;99.90;;;;;;5053845;28;20480;-66
2022/03/12 06:17:49;;;;;;;22.55;14.23;;;9.80;99.90;;;;;;5055543;28;20029;-67
2022/03/12 06:20:22;;;;;;;21.73;14.20;;;9.80;99.90;;;;;;5055667;28;20101;-66
2022/03/12 06:22:53;;;;;;;21.58;13.88;;;9.80;99.90;;;;;;5055430;28;20041;-67
2022/03/12 06:25:19;;;;;;;21.60;14.55;;;9.80;99.90;;;;;;5055122;28;20061;-66
2022/03/12 06:27:53;;;;;;;21.50;14.23;;;9.80;99.90;;;;;;5055970;28;20029;-66
2022/03/12 06:30:21;;;;;;;21.48;15.13;;;9.90;99.90;;;;;;5055173;28;20573;-67
2022/03/12 06:32:48;;;;;;;22.10;14.45;;;9.90;99.90;;;;;;5055103;28;20493;-66
2022/03/12 06:35:15;;;;;;;23.10;15.45;;;9.90;99.90;;;;;;5046941;28;20087;-66
2022/03/12 06:37:42;;;;;;;21.77;15.07;;;9.90;99.90;;;;;;5054543;28;20059;-67
2022/03/12 06:40:14;;;;;;;22.65;14.57;;;9.90;99.90;;;;;;5053444;28;20525;-67
2022/03/12 06:42:42;;;;;;;19.70;14.88;;;9.90;99.90;;;;;;5054744;28;20079;-67
2022/03/12 06:45:09;;;;;;;22.27;14.35;;;9.90;99.90;;;;;;5054525;28;20036;-67
2022/03/12 06:47:38;;;;;;;19.25;14.80;;;9.80;99.90;;;;;;5054843;28;20035;-67
2022/03/12 06:50:11;;;;;;;18.70;14.73;;;9.80;99.90;;;;;;5055227;28;20065;-67
2022/03/12 06:52:41;;;;;;;24.38;15.13;;;9.90;99.90;;;;;;5054998;28;20029;-67
2022/03/12 06:55:09;;;;;;;21.33;14.80;;;9.80;99.90;;;;;;5052986;28;20028;-66
2022/03/12 06:57:36;;;;;;;19.17;14.65;;;9.80;99.90;;;;;;5054460;28;20427;-66
2022/03/12 07:00:04;;;;;;;21.67;14.32;;;9.80;99.90;;;;;;5054558;28;20036;-66
2022/03/12 07:02:30;;;;;;;24.30;14.70;;;9.80;99.90;;;;;;5054559;28;20099;-66
2022/03/12 07:04:56;;;;;;;20.50;14.57;;;9.80;99.90;;;;;;5055840;28;20159;-67
2022/03/12 07:07:22;;;;;;;22.70;15.07;;;9.80;99.90;;;;;;5053613;28;20029;-67
2022/03/12 07:09:47;;;;;;;23.27;14.68;;;9.90;99.90;;;;;;5053295;28;20420;-66
2022/03/12 07:12:13;;;;;;;22.20;14.98;;;9.80;99.90;;;;;;5049737;28;20045;-66
2022/03/12 07:14:39;;;;;;;21.30;15.38;;;9.80;99.90;;;;;;5054272;28;20048;-66
2022/03/12 07:17:05;;;;;;;21.08;14.55;;;9.80;99.90;;;;;;5054615;28;20041;-67
2022/03/12 07:19:31;;;;;;;22.95;14.35;;;9.80;99.90;;;;;;5053849;28;20036;-67
2022/03/12 07:21:56;;;;;;;23.38;14.90;;;9.90;99.90;;;;;;5050025;28;20098;-67
2022/03/12 07:24:22;;;;;;;22.42;15.50;;;9.90;99.90;;;;;;5046534;28;20049;-67
2022/03/12 07:26:48;;;;;;;23.88;15.25;;;9.90;99.90;;;;;;5047134;28;20036;-67
2022/03/12 07:29:14;;;;;;;22.70;15.27;;;9.90;99.90;;;;;;5048393;28;20029;-68
2022/03/12 07:31:39;;;;;;;22.48;14.93;;;9.90;99.90;;;;;;5045967;28;20025;-69
2022/03/12 07:34:07;;;;;;;24.35;16.85;;;9.90;99.90;;;;;;5039366;28;20037;-69
2022/03/12 07:36:33;;;;;;;23.95;15.80;;;9.90;99.90;;;;;;5049255;28;20456;-69
2022/03/12 07:39:02;;;;;;;24.80;16.23;;;10.00;99.90;;;;;;5051817;28;20029;-69
2022/03/12 07:41:29;;;;;;;22.73;14.93;;;9.90;99.90;;;;;;5045864;28;20090;-69
2022/03/12 07:43:54;;;;;;;23.20;15.55;;;9.90;99.90;;;;;;5047042;28;20139;-69
2022/03/12 07:46:21;;;;;;;23.23;16.00;;;9.90;99.90;;;;;;5043723;28;20496;-68
2022/03/12 07:48:47;;;;;;;22.38;14.98;;;9.90;99.90;;;;;;5050779;28;20037;-68
2022/03/12 07:51:13;;;;;;;20.10;13.88;;;9.90;99.90;;;;;;5049144;28;20087;-69
2022/03/12 07:53:39;;;;;;;22.67;14.43;;;9.90;99.90;;;;;;5051949;28;20033;-69
2022/03/12 07:56:07;;;;;;;20.55;14.80;;;10.00;99.90;;;;;;5049433;28;20033;-69
2022/03/12 07:58:33;;;;;;;21.52;13.88;;;10.00;99.90;;;;;;5048590;28;20033;-70
2022/03/12 08:01:00;;;;;;;22.88;15.00;;;10.00;99.90;;;;;;5049096;28;20049;-69
2022/03/12 08:03:26;;;;;;;21.52;14.60;;;10.00;99.90;;;;;;5045558;28;20103;-69
2022/03/12 08:05:52;;;;;;;23.10;14.95;;;10.10;99.90;;;;;;5048531;28;20039;-69
2022/03/12 08:08:19;;;;;;;17.98;14.43;;;10.10;99.90;;;;;;5051228;28;20112;-69
2022/03/12 08:13:29;;;;;;;22.73;14.07;;;10.10;99.90;;;;;;5052492;28;20102;-69
2022/03/12 08:15:57;;;;;;;17.23;13.88;;;10.10;99.90;;;;;;5049182;28;20397;-69
2022/03/12 08:18:23;;;;;;;21.55;14.60;;;10.20;99.90;;;;;;5044066;28;20041;-69
2022/03/12 08:20:50;;;;;;;22.02;14.80;;;10.20;99.90;;;;;;5045873;28;20711;-70
2022/03/12 08:23:16;;;;;;;25.25;13.93;;;10.30;99.90;;;;;;5050003;28;20021;-69
2022/03/12 08:25:42;;;;;;;24.17;14.82;;;10.30;99.90;;;;;;5047969;28;20029;-69
2022/03/12 08:28:09;;;;;;;21.15;13.90;;;10.30;99.90;;;;;;5047269;28;20086;-67
2022/03/12 08:30:36;;;;;;;19.52;13.60;;;10.30;99.90;;;;;;5045885;28;20485;-66
2022/03/12 08:33:02;;;;;;;23.48;14.35;;;10.40;99.90;;;;;;5045480;28;20025;-66
2022/03/12 08:35:28;;;;;;;19.25;14.13;;;10.30;99.90;;;;;;5048393;28;20378;-66
2022/03/12 08:37:54;;;;;;;20.55;13.82;;;10.40;99.90;;;;;;5045962;28;20025;-68
2022/03/12 08:40:20;;;;;;;20.63;15.07;;;10.40;99.90;;;;;;5048813;28;20036;-67
2022/03/12 08:42:46;;;;;;;23.15;15.60;;;10.50;99.90;;;;;;5047279;28;20029;-67
2022/03/12 08:45:12;;;;;;;21.60;15.15;;;10.50;99.90;;;;;;5049137;28;20504;-69
2022/03/12 08:47:40;;;;;;;22.65;14.77;;;10.50;99.90;;;;;;5045282;28;20021;-67
2022/03/12 08:50:09;;;;;;;21.38;14.52;;;10.50;99.90;;;;;;5044346;28;20041;-67
2022/03/12 08:52:37;;;;;;;23.65;15.32;;;10.50;99.90;;;;;;5050279;28;20033;-73
2022/03/12 08:55:05;;;;;;;22.45;14.52;;;10.60;99.90;;;;;;5045858;28;20025;-72
2022/03/12 08:57:31;;;;;;;20.40;14.07;;;10.60;99.90;;;;;;5046495;28;20435;-72
2022/03/12 08:59:57;;;;;;;20.90;14.60;;;10.60;99.90;;;;;;5046141;28;20112;-72
2022/03/12 09:02:23;;;;;;;19.42;14.57;;;10.70;99.90;;;;;;5047297;28;20033;-72
2022/03/12 09:04:49;;;;;;;20.95;13.98;;;10.70;99.90;;;;;;5043979;28;20025;-73
2022/03/12 09:07:15;;;;;;;23.60;14.95;;;10.70;99.90;;;;;;5045733;28;20029;-72
2022/03/12 09:09:41;;;;;;;22.00;14.15;;;10.80;99.90;;;;;;5044158;28;20124;-71
2022/03/12 09:12:08;;;;;;;19.73;14.40;;;10.80;99.90;;;;;;5043102;28;20051;-70
2022/03/12 09:14:36;;;;;;;20.35;14.68;;;10.90;99.90;;;;;;5051169;28;20100;-71
2022/03/12 09:17:04;;;;;;;24.05;15.38;;;11.00;99.90;;;;;;5047901;28;20095;-70
2022/03/12 09:19:32;;;;;;;19.60;14.98;;;11.00;99.90;;;;;;5045070;28;20463;-69
2022/03/12 09:21:57;;;;;;;20.10;14.82;;;11.00;99.90;;;;;;5046482;28;20028;-71
2022/03/12 09:24:23;;;;;;;21.70;15.23;;;11.00;99.90;;;;;;5045632;28;20037;-70
2022/03/12 09:26:49;;;;;;;22.75;14.27;;;11.00;99.90;;;;;;5049544;28;20036;-70
2022/03/12 09:29:15;;;;;;;20.05;14.27;;;11.10;99.90;;;;;;5049216;28;20048;-73
2022/03/12 09:31:41;;;;;;;22.08;14.77;;;11.20;99.90;;;;;;5045819;28;20021;-73
2022/03/12 09:34:08;;;;;;;21.33;13.52;;;11.10;99.90;;;;;;5041614;28;20029;-74
2022/03/12 09:36:35;;;;;;;20.92;14.20;;;11.10;99.90;;;;;;5063687;28;20531;-74
2022/03/12 09:39:04;;;;;;;19.23;13.18;;;11.20;99.90;;;;;;5043815;28;20017;-75
2022/03/12 09:41:30;;;;;;;18.60;13.82;;;11.30;99.90;;;;;;5043678;28;20033;-74
2022/03/12 09:43:56;;;;;;;18.20;12.85;;;11.30;99.90;;;;;;5043919;28;20044;-74
2022/03/12 09:46:22;;;;;;;20.00;14.60;;;11.40;99.90;;;;;;5046755;28;20467;-73
2022/03/12 09:48:48;;;;;;;16.98;13.55;;;11.40;99.90;;;;;;5046031;28;20127;-74
2022/03/12 09:51:14;;;;;;;23.00;14.40;;;11.40;99.90;;;;;;5043961;28;20040;-73
2022/03/12 09:53:40;;;;;;;24.25;14.88;;;11.40;99.90;;;;;;5041509;28;20043;-74
2022/03/12 09:56:06;;;;;;;26.13;15.65;;;11.50;99.90;;;;;;5044496;28;20531;-73
2022/03/12 09:58:32;;;;;;;20.27;13.75;;;11.50;99.90;;;;;;5046435;28;20056;-75
2022/03/12 10:00:58;;;;;;;20.60;12.55;;;11.50;99.90;;;;;;5045930;28;20039;-73
2022/03/12 10:03:24;;;;;;;17.05;12.50;;;11.50;99.90;;;;;;5044091;28;20119;-74
2022/03/12 10:05:49;;;;;;;18.80;12.63;;;11.50;99.90;;;;;;5044242;28;20037;-75
2022/03/12 10:08:16;;;;;;;17.70;11.27;;;11.50;99.90;;;;;;5044518;28;20040;-74
2022/03/12 10:10:42;;;;;;;18.17;11.05;;;11.50;99.90;;;;;;5045266;28;20075;-76
2022/03/12 10:13:10;;;;;;;19.83;11.50;;;11.50;99.90;;;;;;5049982;28;20045;-75
2022/03/12 10:15:37;;;;;;;21.65;11.30;;;11.50;99.90;;;;;;5047914;28;20489;-75
2022/03/12 10:18:03;;;;;;;17.30;10.68;;;11.50;99.90;;;;;;5047733;28;20055;-75
2022/03/12 10:20:30;;;;;;;19.00;10.38;;;11.60;99.90;;;;;;5047309;28;20032;-75
2022/03/12 10:22:56;;;;;;;17.90;10.13;;;11.60;99.90;;;;;;5047048;28;20048;-73
2022/03/12 10:25:22;;;;;;;18.80;10.23;;;11.60;99.90;;;;;;5050787;28;20071;-75
2022/03/12 10:27:48;;;;;;;15.80;9.48;;;11.60;99.90;;;;;;5048573;28;20584;-73
2022/03/12 10:30:14;;;;;;;16.10;9.35;;;11.60;99.90;;;;;;5050330;28;20116;-71
2022/03/12 10:32:45;;;;;;;17.55;9.45;;;11.60;99.90;;;;;;5050025;28;20029;-71
2022/03/12 10:35:14;;;;;;;18.02;9.52;;;11.60;99.90;;;;;;5050197;28;20792;-72
2022/03/12 10:37:40;;;;;;;15.80;9.00;;;11.60;99.90;;;;;;5052561;28;20033;-70
2022/03/12 10:40:16;;;;;;;13.07;8.93;;;11.60;99.90;;;;;;5052578;28;20013;-74
2022/03/12 10:43:05;;;;;;;17.25;9.88;;;11.60;99.90;;;;;;5050535;28;20425;-74
2022/03/12 10:45:42;;;;;;;18.30;8.98;;;11.50;99.90;;;;;;5048809;28;20033;-71
2022/03/12 10:48:09;;;;;;;14.65;9.65;;;11.50;99.90;;;;;;5050425;28;20461;-73
2022/03/12 10:50:40;;;;;;;14.48;9.30;;;11.50;99.90;;;;;;5049843;28;20103;-73
2022/03/12 10:53:06;;;;;;;15.93;9.65;;;11.50;99.90;;;;;;5053763;28;20128;-74
2022/03/12 10:55:40;;;;;;;16.95;9.45;;;11.50;99.90;;;;;;5045813;28;20081;-72
2022/03/12 10:58:17;;;;;;;17.15;9.93;;;11.50;99.90;;;;;;5044496;28;20082;-72
2022/03/12 11:00:52;;;;;;;18.30;9.73;;;11.40;99.90;;;;;;5047930;28;20505;-78
2022/03/12 11:03:26;;;;;;;13.98;9.43;;;11.50;99.90;;;;;;5048721;28;20092;-72
2022/03/12 11:05:55;;;;;;;15.13;9.90;;;11.50;99.90;;;;;;5050132;28;20567;-74
2022/03/12 11:08:24;;;;;;;16.17;9.90;;;11.50;99.90;;;;;;5050638;28;20048;-70
2022/03/12 11:10:54;;;;;;;16.83;9.38;;;11.50;99.90;;;;;;5037797;28;20040;-68
2022/03/12 11:13:39;;;;;;;14.65;9.20;;;11.40;99.90;;;;;;5045370;28;20045;-69
2022/03/12 11:16:20;;;;;;;13.00;8.52;;;11.50;99.90;;;;;;5043279;28;20039;-69
2022/03/12 11:18:58;;;;;;;15.45;9.55;;;11.50;99.90;;;;;;5045447;28;20026;-69
2022/03/12 11:21:37;;;;;;;16.70;9.75;;;11.50;99.90;;;;;;5046023;28;20038;-69
2022/03/12 11:24:23;;;;;;;18.23;11.23;;;11.50;99.90;;;;;;5043067;28;20029;-69
2022/03/12 11:27:05;;;;;;;16.40;10.30;;;11.50;99.90;;;;;;5051343;28;20262;-71
2022/03/12 11:29:31;;;;;;;18.25;10.80;;;11.60;99.90;;;;;;5052147;28;20021;-69
2022/03/12 11:31:59;;;;;;;15.10;9.40;;;11.60;99.90;;;;;;5046502;28;20382;-70
2022/03/12 11:34:42;;;;;;;16.45;9.75;;;11.50;99.90;;;;;;5043083;28;20635;-71
2022/03/12 11:37:21;;;;;;;16.77;9.98;;;11.50;99.90;;;;;;5050018;28;20068;-72
2022/03/12 11:39:48;;;;;;;13.65;9.65;;;11.60;99.90;;;;;;5051263;28;20073;-71
2022/03/12 11:42:17;;;;;;;14.93;9.75;;;11.60;99.90;;;;;;5048364;28;20045;-72
2022/03/12 11:44:47;;;;;;;14.73;10.00;;;11.50;99.90;;;;;;5045926;28;20100;-71
2022/03/12 11:47:15;;;;;;;15.05;10.00;;;11.50;99.90;;;;;;5044621;28;20053;-72
2022/03/12 11:49:42;;;;;;;13.85;9.55;;;11.50;99.90;;;;;;5045302;28;20457;-71
2022/03/12 11:52:08;;;;;;;11.50;8.43;;;11.50;99.90;;;;;;5046997;28;20022;-74
2022/03/12 11:54:40;;;;;;;14.30;9.30;;;11.40;99.90;;;;;;5051417;28;20021;-76
2022/03/12 11:57:07;;;;;;;19.10;9.70;;;11.40;99.90;;;;;;5047808;28;20040;-79
2022/03/12 11:59:34;;;;;;;18.95;9.15;;;11.40;99.90;;;;;;5045914;28;20021;-76
2022/03/12 12:02:24;;;;;;;20.08;10.50;;;11.30;99.90;;;;;;5046915;28;20359;-75
2022/03/12 12:04:53;;;;;;;15.85;9.15;;;11.30;99.90;;;;;;5044424;28;20043;-78
2022/03/12 12:07:19;;;;;;;15.40;9.13;;;11.20;99.90;;;;;;5046812;28;20033;-74
2022/03/12 12:09:45;;;;;;;15.48;9.73;;;11.20;99.90;;;;;;5052348;28;20389;-75
2022/03/12 12:12:14;;;;;;;15.88;9.68;;;11.20;99.90;;;;;;5054676;28;20045;-74
2022/03/12 12:14:41;;;;;;;15.13;10.10;;;11.20;99.90;;;;;;5054334;28;20045;-76
2022/03/12 12:17:07;;;;;;;15.00;9.85;;;11.20;99.90;;;;;;5047247;28;20035;-74
2022/03/12 12:19:36;;;;;;;14.50;8.82;;;11.20;99.90;;;;;;5045603;28;20029;-74
2022/03/12 12:22:03;;;;;;;15.98;8.95;;;11.20;99.90;;;;;;5050518;28;20108;-71
2022/03/12 12:24:36;;;;;;;15.43;8.73;;;11.30;99.90;;;;;;5051919;28;20062;-72
2022/03/12 12:27:12;;;;;;;13.80;8.65;;;11.40;99.90;;;;;;5048151;28;20033;-73
2022/03/12 12:29:50;;;;;;;17.10;9.18;;;11.40;99.90;;;;;;5049203;28;20037;-74
2022/03/12 12:32:19;;;;;;;16.45;9.90;;;11.50;99.90;;;;;;5046951;28;20025;-79
2022/03/12 12:35:04;;;;;;;18.20;9.63;;;11.50;99.90;;;;;;5046145;28;20043;-76
2022/03/12 12:37:51;;;;;;;20.85;9.80;;;11.40;99.90;;;;;;5048830;28;20370;-79